createdAt,value
2022-09-04T00:00:24.930Z,63.85
2022-09-04T00:00:59.968Z,63.45
2022-09-04T00:01:35.364Z,63.75
2022-09-04T00:02:11.096Z,63.54
2022-09-04T00:02:46.505Z,63.85
2022-09-04T00:03:22.015Z,64.35
2022-09-04T00:03:57.207Z,63.95
2022-09-04T00:04:32.689Z,63.95
2022-09-04T00:05:08.166Z,64.05
2022-09-04T00:05:43.060Z,64.45
2022-09-04T00:06:18.577Z,64.15
2022-09-04T00:06:53.788Z,64.15
2022-09-04T00:07:28.981Z,64.65
2022-09-04T00:08:04.295Z,64.05
2022-09-04T00:08:39.627Z,64.15
2022-09-04T00:09:15.052Z,64.55
2022-09-04T00:09:50.168Z,64.48
2022-09-04T00:10:25.018Z,64.65
2022-09-04T00:11:00.231Z,64.58
2022-09-04T00:11:35.616Z,64.65
2022-09-04T00:12:11.026Z,63.95
2022-09-04T00:12:46.301Z,64.89
2022-09-04T00:13:21.539Z,64.65
2022-09-04T00:13:56.882Z,64.65
2022-09-04T00:14:32.306Z,64.65
2022-09-04T00:15:07.350Z,64.65
2022-09-04T00:15:42.802Z,64.07
2022-09-04T00:16:18.037Z,64.05
2022-09-04T00:16:53.577Z,64.05
2022-09-04T00:17:28.747Z,63.85
2022-09-04T00:18:04.480Z,64.65
2022-09-04T00:18:39.500Z,64.69
2022-09-04T00:19:15.130Z,64.48
2022-09-04T00:19:50.235Z,64.58
2022-09-04T00:20:25.847Z,64.98
2022-09-04T00:21:01.398Z,65.49
2022-09-04T00:21:36.587Z,65.59
2022-09-04T00:22:11.598Z,65.39
2022-09-04T00:22:47.028Z,65.59
2022-09-04T00:23:22.261Z,65.59
2022-09-04T00:23:57.475Z,65.69
2022-09-04T00:24:32.910Z,65.39
2022-09-04T00:25:08.246Z,65.82
2022-09-04T00:25:43.575Z,65.12
2022-09-04T00:26:21.202Z,65.12
2022-09-04T00:26:54.181Z,65.72
2022-09-04T00:27:29.368Z,66.30
2022-09-04T00:28:04.671Z,65.42
2022-09-04T00:28:40.086Z,65.69
2022-09-04T00:29:15.995Z,65.89
2022-09-04T00:29:51.235Z,65.52
2022-09-04T00:30:26.405Z,65.82
2022-09-04T00:31:01.564Z,65.12
2022-09-04T00:31:36.828Z,64.81
2022-09-04T00:32:12.333Z,65.52
2022-09-04T00:32:47.540Z,65.69
2022-09-04T00:33:22.736Z,65.72
2022-09-04T00:33:58.164Z,66.02
2022-09-04T00:34:33.189Z,65.01
2022-09-04T00:35:08.573Z,65.52
2022-09-04T00:35:44.182Z,65.72
2022-09-04T00:36:19.380Z,65.72
2022-09-04T00:36:54.392Z,65.72
2022-09-04T00:37:29.881Z,65.82
2022-09-04T00:38:05.392Z,65.82
2022-09-04T00:38:40.294Z,65.99
2022-09-04T00:39:15.398Z,65.22
2022-09-04T00:39:50.896Z,65.52
2022-09-04T00:40:25.927Z,65.92
2022-09-04T00:41:01.233Z,65.82
2022-09-04T00:41:36.334Z,65.42
2022-09-04T00:42:11.655Z,65.62
2022-09-04T00:42:46.877Z,65.52
2022-09-04T00:43:22.365Z,65.42
2022-09-04T00:43:57.777Z,65.72
2022-09-04T00:44:32.983Z,65.52
2022-09-04T00:45:09.867Z,65.52
2022-09-04T00:45:43.436Z,65.62
2022-09-04T00:46:18.689Z,66.22
2022-09-04T00:46:53.865Z,66.02
2022-09-04T00:47:29.061Z,65.52
2022-09-04T00:48:04.361Z,65.22
2022-09-04T00:48:39.661Z,66.02
2022-09-04T00:49:14.674Z,66.33
2022-09-04T00:49:49.989Z,65.22
2022-09-04T00:50:25.399Z,65.42
2022-09-04T00:51:00.747Z,65.92
2022-09-04T00:51:35.748Z,65.52
2022-09-04T00:52:11.277Z,65.42
2022-09-04T00:52:46.600Z,65.72
2022-09-04T00:53:22.004Z,65.42
2022-09-04T00:53:57.309Z,65.92
2022-09-04T00:54:32.654Z,65.52
2022-09-04T00:55:07.663Z,65.32
2022-09-04T00:55:42.558Z,65.52
2022-09-04T00:56:17.805Z,65.72
2022-09-04T00:56:53.024Z,65.42
2022-09-04T00:57:28.032Z,66.02
2022-09-04T00:58:03.148Z,66.05
2022-09-04T00:58:38.348Z,65.52
2022-09-04T00:59:13.582Z,65.22
2022-09-04T00:59:49.292Z,66.13
2022-09-04T01:00:24.389Z,66.22
2022-09-04T01:00:59.837Z,66.02
2022-09-04T01:01:36.870Z,65.92
2022-09-04T01:02:10.331Z,65.62
2022-09-04T01:02:45.594Z,66.13
2022-09-04T01:03:21.201Z,65.62
2022-09-04T01:03:56.322Z,66.25
2022-09-04T01:04:31.526Z,66.36
2022-09-04T01:05:06.945Z,65.92
2022-09-04T01:05:42.240Z,65.32
2022-09-04T01:06:17.839Z,65.32
2022-09-04T01:06:52.991Z,65.92
2022-09-04T01:07:28.577Z,65.72
2022-09-04T01:08:03.895Z,65.52
2022-09-04T01:08:39.172Z,65.92
2022-09-04T01:09:14.392Z,66.02
2022-09-04T01:09:49.606Z,66.33
2022-09-04T01:10:25.008Z,65.62
2022-09-04T01:11:00.849Z,65.82
2022-09-04T01:11:36.120Z,66.36
2022-09-04T01:12:11.444Z,65.85
2022-09-04T01:12:46.859Z,65.65
2022-09-04T01:13:22.106Z,65.95
2022-09-04T01:13:57.127Z,66.16
2022-09-04T01:14:32.123Z,66.36
2022-09-04T01:15:07.545Z,66.05
2022-09-04T01:15:42.965Z,66.16
2022-09-04T01:16:18.067Z,66.25
2022-09-04T01:16:53.433Z,66.76
2022-09-04T01:17:28.905Z,66.36
2022-09-04T01:18:04.130Z,66.05
2022-09-04T01:18:39.217Z,65.95
2022-09-04T01:19:14.439Z,66.25
2022-09-04T01:19:49.445Z,66.86
2022-09-04T01:20:24.841Z,66.36
2022-09-04T01:21:00.172Z,66.76
2022-09-04T01:21:35.254Z,66.66
2022-09-04T01:22:10.794Z,66.66
2022-09-04T01:22:46.328Z,66.59
2022-09-04T01:23:21.543Z,66.59
2022-09-04T01:23:56.757Z,67.10
2022-09-04T01:24:31.759Z,66.56
2022-09-04T01:25:06.984Z,66.59
2022-09-04T01:25:42.207Z,66.69
2022-09-04T01:26:17.521Z,66.89
2022-09-04T01:26:52.660Z,66.49
2022-09-04T01:27:27.667Z,66.49
2022-09-04T01:28:03.008Z,66.79
2022-09-04T01:28:38.320Z,66.49
2022-09-04T01:29:13.543Z,67.19
2022-09-04T01:29:48.722Z,66.89
2022-09-04T01:30:24.123Z,66.49
2022-09-04T01:30:59.535Z,66.49
2022-09-04T01:31:34.785Z,67.10
2022-09-04T01:32:09.972Z,66.89
2022-09-04T01:32:45.592Z,66.49
2022-09-04T01:33:20.869Z,66.69
2022-09-04T01:33:56.086Z,67.19
2022-09-04T01:34:31.082Z,66.89
2022-09-04T01:35:06.479Z,66.49
2022-09-04T01:35:41.617Z,66.59
2022-09-04T01:36:16.765Z,66.79
2022-09-04T01:36:52.328Z,66.69
2022-09-04T01:37:27.571Z,66.49
2022-09-04T01:38:02.702Z,66.99
2022-09-04T01:38:37.753Z,67.10
2022-09-04T01:39:12.974Z,66.69
2022-09-04T01:39:48.238Z,66.99
2022-09-04T01:40:23.418Z,67.40
2022-09-04T01:40:58.750Z,68.01
2022-09-04T01:41:38.131Z,67.33
2022-09-04T01:42:09.093Z,67.93
2022-09-04T01:42:44.190Z,68.04
2022-09-04T01:43:19.592Z,67.23
2022-09-04T01:43:54.700Z,67.93
2022-09-04T01:44:30.027Z,67.83
2022-09-04T01:45:05.312Z,67.93
2022-09-04T01:45:40.564Z,67.93
2022-09-04T01:46:16.036Z,67.53
2022-09-04T01:46:51.233Z,68.13
2022-09-04T01:47:26.841Z,67.13
2022-09-04T01:48:02.256Z,67.33
2022-09-04T01:48:37.261Z,67.93
2022-09-04T01:49:12.402Z,68.04
2022-09-04T01:49:47.603Z,67.33
2022-09-04T01:50:22.815Z,67.33
2022-09-04T01:50:58.108Z,67.63
2022-09-04T01:51:33.645Z,67.63
2022-09-04T01:52:09.140Z,67.33
2022-09-04T01:52:44.855Z,67.86
2022-09-04T01:53:20.184Z,67.73
2022-09-04T01:53:55.580Z,67.83
2022-09-04T01:54:30.840Z,67.83
2022-09-04T01:55:06.036Z,67.63
2022-09-04T01:55:41.148Z,67.43
2022-09-04T01:56:16.145Z,67.63
2022-09-04T01:56:51.575Z,68.04
2022-09-04T01:57:26.881Z,67.13
2022-09-04T01:58:01.896Z,67.53
2022-09-04T01:58:37.107Z,67.13
2022-09-04T01:59:12.512Z,67.73
2022-09-04T01:59:49.753Z,67.33
2022-09-04T02:00:23.203Z,67.73
2022-09-04T02:00:59.241Z,67.13
2022-09-04T02:01:34.744Z,67.93
2022-09-04T02:02:10.372Z,67.83
2022-09-04T02:02:45.446Z,67.33
2022-09-04T02:03:20.701Z,67.43
2022-09-04T02:03:55.911Z,67.13
2022-09-04T02:04:31.472Z,67.83
2022-09-04T02:05:08.628Z,67.02
2022-09-04T02:05:42.492Z,67.33
2022-09-04T02:06:17.905Z,68.04
2022-09-04T02:06:53.244Z,67.83
2022-09-04T02:07:28.460Z,68.13
2022-09-04T02:08:03.567Z,67.73
2022-09-04T02:08:38.971Z,67.23
2022-09-04T02:09:14.776Z,67.93
2022-09-04T02:09:50.178Z,67.43
2022-09-04T02:10:25.405Z,67.63
2022-09-04T02:11:00.645Z,67.83
2022-09-04T02:11:35.856Z,66.52
2022-09-04T02:12:10.962Z,67.26
2022-09-04T02:12:46.381Z,67.73
2022-09-04T02:13:21.580Z,67.53
2022-09-04T02:13:56.887Z,67.73
2022-09-04T02:14:31.897Z,68.04
2022-09-04T02:15:07.685Z,67.23
2022-09-04T02:15:42.921Z,67.83
2022-09-04T02:16:18.330Z,67.53
2022-09-04T02:16:53.763Z,68.13
2022-09-04T02:17:29.169Z,68.17
2022-09-04T02:18:04.461Z,67.76
2022-09-04T02:18:39.859Z,67.76
2022-09-04T02:19:14.971Z,68.27
2022-09-04T02:19:50.096Z,68.37
2022-09-04T02:20:25.193Z,68.47
2022-09-04T02:21:00.426Z,68.67
2022-09-04T02:21:35.526Z,68.27
2022-09-04T02:22:11.025Z,68.17
2022-09-04T02:22:46.342Z,68.57
2022-09-04T02:23:21.633Z,68.57
2022-09-04T02:23:57.076Z,68.17
2022-09-04T02:24:32.303Z,68.17
2022-09-04T02:25:07.700Z,68.27
2022-09-04T02:25:42.841Z,68.40
2022-09-04T02:26:18.369Z,68.37
2022-09-04T02:26:53.910Z,68.47
2022-09-04T02:27:29.360Z,67.46
2022-09-04T02:28:04.300Z,68.17
2022-09-04T02:28:39.506Z,68.27
2022-09-04T02:29:14.710Z,68.27
2022-09-04T02:29:50.008Z,68.67
2022-09-04T02:30:25.009Z,68.57
2022-09-04T02:31:00.311Z,68.30
2022-09-04T02:31:35.705Z,67.46
2022-09-04T02:32:11.070Z,68.17
2022-09-04T02:32:46.498Z,67.76
2022-09-04T02:33:21.737Z,68.47
2022-09-04T02:33:57.020Z,68.67
2022-09-04T02:34:32.314Z,68.47
2022-09-04T02:35:07.332Z,68.17
2022-09-04T02:35:42.544Z,68.07
2022-09-04T02:36:17.763Z,67.66
2022-09-04T02:36:53.078Z,68.77
2022-09-04T02:37:28.177Z,68.17
2022-09-04T02:38:03.430Z,68.47
2022-09-04T02:38:38.822Z,68.47
2022-09-04T02:39:14.082Z,68.80
2022-09-04T02:39:49.424Z,68.80
2022-09-04T02:40:24.770Z,68.91
2022-09-04T02:41:00.184Z,69.01
2022-09-04T02:41:35.486Z,68.57
2022-09-04T02:42:10.620Z,68.71
2022-09-04T02:42:45.941Z,68.91
2022-09-04T02:43:21.246Z,69.11
2022-09-04T02:43:56.465Z,69.01
2022-09-04T02:44:31.986Z,69.01
2022-09-04T02:45:07.097Z,69.01
2022-09-04T02:45:42.600Z,68.71
2022-09-04T02:46:17.871Z,69.01
2022-09-04T02:46:53.102Z,69.01
2022-09-04T02:47:28.379Z,68.51
2022-09-04T02:48:03.736Z,68.80
2022-09-04T02:48:39.139Z,68.71
2022-09-04T02:49:14.568Z,69.01
2022-09-04T02:49:49.607Z,68.80
2022-09-04T02:50:24.800Z,69.42
2022-09-04T02:50:59.926Z,69.51
2022-09-04T02:51:35.297Z,69.21
2022-09-04T02:52:10.509Z,69.51
2022-09-04T02:52:45.827Z,69.51
2022-09-04T02:53:21.010Z,68.91
2022-09-04T02:53:56.637Z,69.01
2022-09-04T02:54:32.166Z,68.91
2022-09-04T02:55:07.681Z,69.31
2022-09-04T02:55:42.988Z,69.51
2022-09-04T02:56:18.441Z,69.31
2022-09-04T02:56:53.642Z,68.80
2022-09-04T02:57:28.835Z,69.55
2022-09-04T02:58:03.867Z,69.31
2022-09-04T02:58:39.087Z,69.21
2022-09-04T02:59:14.205Z,68.43
2022-09-04T02:59:49.662Z,68.30
2022-09-04T03:00:24.891Z,68.91
2022-09-04T03:01:00.322Z,69.01
2022-09-04T03:01:35.668Z,68.30
2022-09-04T03:02:10.826Z,68.30
2022-09-04T03:02:45.934Z,68.00
2022-09-04T03:03:21.036Z,68.40
2022-09-04T03:03:56.151Z,68.60
2022-09-04T03:04:31.443Z,68.00
2022-09-04T03:05:06.860Z,68.30
2022-09-04T03:05:42.042Z,67.80
2022-09-04T03:06:17.555Z,68.30
2022-09-04T03:06:52.760Z,68.20
2022-09-04T03:07:28.051Z,68.07
2022-09-04T03:08:03.260Z,68.91
2022-09-04T03:08:38.573Z,68.51
2022-09-04T03:09:14.187Z,68.20
2022-09-04T03:09:49.400Z,67.69
2022-09-04T03:10:24.699Z,68.40
2022-09-04T03:10:59.925Z,68.71
2022-09-04T03:11:34.961Z,68.40
2022-09-04T03:12:10.170Z,68.00
2022-09-04T03:12:45.589Z,68.20
2022-09-04T03:13:21.086Z,68.30
2022-09-04T03:13:56.214Z,68.91
2022-09-04T03:14:31.540Z,68.91
2022-09-04T03:15:06.840Z,68.71
2022-09-04T03:15:41.965Z,68.40
2022-09-04T03:16:17.296Z,69.31
2022-09-04T03:16:52.568Z,68.80
2022-09-04T03:17:27.671Z,69.01
2022-09-04T03:18:03.014Z,69.01
2022-09-04T03:18:38.226Z,68.20
2022-09-04T03:19:13.458Z,68.00
2022-09-04T03:19:48.969Z,68.91
2022-09-04T03:20:24.392Z,68.91
2022-09-04T03:20:59.512Z,68.30
2022-09-04T03:21:35.385Z,68.20
2022-09-04T03:22:10.669Z,68.00
2022-09-04T03:22:45.991Z,67.60
2022-09-04T03:23:21.577Z,68.51
2022-09-04T03:23:57.101Z,68.30
2022-09-04T03:24:32.118Z,68.80
2022-09-04T03:25:07.529Z,68.51
2022-09-04T03:25:42.822Z,68.71
2022-09-04T03:26:18.153Z,68.10
2022-09-04T03:26:53.770Z,68.30
2022-09-04T03:27:29.391Z,68.71
2022-09-04T03:28:04.997Z,69.01
2022-09-04T03:28:40.631Z,68.20
2022-09-04T03:29:16.234Z,68.40
2022-09-04T03:29:51.554Z,68.80
2022-09-04T03:30:26.937Z,68.91
2022-09-04T03:31:02.231Z,68.71
2022-09-04T03:31:37.182Z,68.60
2022-09-04T03:32:16.454Z,68.51
2022-09-04T03:32:47.548Z,69.55
2022-09-04T03:33:22.887Z,68.74
2022-09-04T03:33:58.475Z,68.94
2022-09-04T03:34:33.656Z,69.65
2022-09-04T03:35:09.054Z,68.74
2022-09-04T03:35:44.387Z,69.45
2022-09-04T03:36:19.846Z,69.34
2022-09-04T03:36:54.905Z,69.04
2022-09-04T03:37:30.147Z,68.91
2022-09-04T03:38:05.276Z,69.04
2022-09-04T03:38:40.346Z,68.54
2022-09-04T03:39:15.955Z,69.14
2022-09-04T03:39:51.129Z,68.84
2022-09-04T03:40:26.252Z,67.93
2022-09-04T03:41:01.843Z,69.42
2022-09-04T03:41:36.929Z,69.24
2022-09-04T03:42:12.156Z,69.75
2022-09-04T03:42:47.675Z,68.94
2022-09-04T03:43:23.031Z,69.85
2022-09-04T03:43:58.195Z,70.05
2022-09-04T03:44:33.521Z,70.25
2022-09-04T03:45:08.724Z,70.29
2022-09-04T03:45:44.003Z,70.25
2022-09-04T03:46:19.524Z,70.39
2022-09-04T03:46:54.704Z,70.36
2022-09-04T03:47:29.859Z,69.75
2022-09-04T03:48:05.198Z,70.59
2022-09-04T03:48:40.635Z,70.39
2022-09-04T03:49:15.913Z,69.24
2022-09-04T03:49:51.398Z,69.75
2022-09-04T03:50:26.702Z,69.24
2022-09-04T03:51:01.768Z,68.87
2022-09-04T03:51:36.952Z,69.58
2022-09-04T03:52:12.311Z,69.24
2022-09-04T03:52:47.395Z,69.45
2022-09-04T03:53:22.722Z,68.54
2022-09-04T03:53:57.991Z,69.04
2022-09-04T03:54:33.456Z,68.94
2022-09-04T03:55:08.612Z,68.54
2022-09-04T03:55:44.457Z,69.04
2022-09-04T03:56:20.043Z,68.74
2022-09-04T03:56:55.849Z,68.94
2022-09-04T03:57:31.022Z,68.43
2022-09-04T03:58:06.484Z,68.33
2022-09-04T03:58:41.688Z,67.72
2022-09-04T03:59:16.988Z,68.20
2022-09-04T03:59:52.347Z,68.23
2022-09-04T04:00:27.512Z,68.43
2022-09-04T04:01:02.904Z,68.54
2022-09-04T04:01:38.078Z,68.03
2022-09-04T04:02:13.307Z,67.43
2022-09-04T04:02:48.595Z,68.20
2022-09-04T04:03:23.948Z,68.71
2022-09-04T04:03:59.370Z,69.01
2022-09-04T04:04:34.657Z,69.21
2022-09-04T04:05:09.878Z,70.02
2022-09-04T04:05:44.983Z,68.84
2022-09-04T04:06:20.311Z,68.74
2022-09-04T04:06:55.630Z,68.63
2022-09-04T04:07:30.946Z,70.15
2022-09-04T04:08:06.356Z,69.45
2022-09-04T04:08:41.923Z,68.84
2022-09-04T04:09:17.403Z,68.74
2022-09-04T04:09:52.589Z,68.43
2022-09-04T04:10:28.026Z,68.84
2022-09-04T04:11:03.237Z,68.74
2022-09-04T04:11:43.353Z,68.74
2022-09-04T04:12:13.810Z,69.65
2022-09-04T04:12:49.977Z,69.45
2022-09-04T04:13:24.565Z,70.18
2022-09-04T04:13:59.774Z,70.46
2022-09-04T04:14:35.068Z,70.29
2022-09-04T04:15:10.481Z,70.18
2022-09-04T04:15:45.978Z,69.58
2022-09-04T04:16:24.703Z,69.38
2022-09-04T04:16:56.852Z,68.87
2022-09-04T04:17:32.389Z,69.89
2022-09-04T04:18:07.603Z,69.48
2022-09-04T04:18:43.013Z,68.67
2022-09-04T04:19:18.349Z,68.77
2022-09-04T04:19:53.946Z,69.38
2022-09-04T04:20:29.315Z,69.89
2022-09-04T04:21:04.740Z,70.46
2022-09-04T04:21:39.782Z,70.89
2022-09-04T04:22:14.945Z,69.18
2022-09-04T04:22:50.468Z,69.24
2022-09-04T04:23:25.899Z,69.89
2022-09-04T04:24:00.994Z,69.04
2022-09-04T04:24:36.503Z,70.59
2022-09-04T04:25:11.748Z,70.36
2022-09-04T04:25:47.110Z,70.29
2022-09-04T04:26:22.716Z,70.36
2022-09-04T04:26:57.944Z,69.07
2022-09-04T04:27:33.139Z,69.38
2022-09-04T04:28:08.377Z,68.77
2022-09-04T04:28:43.879Z,69.14
2022-09-04T04:29:19.298Z,70.36
2022-09-04T04:29:54.618Z,69.24
2022-09-04T04:30:29.799Z,69.24
2022-09-04T04:31:05.355Z,68.94
2022-09-04T04:31:41.085Z,69.65
2022-09-04T04:32:16.471Z,69.65
2022-09-04T04:32:51.783Z,69.27
2022-09-04T04:33:27.174Z,69.27
2022-09-04T04:34:02.378Z,69.18
2022-09-04T04:34:38.143Z,69.48
2022-09-04T04:35:13.775Z,70.29
2022-09-04T04:35:49.476Z,70.05
2022-09-04T04:36:24.889Z,70.59
2022-09-04T04:37:00.705Z,70.39
2022-09-04T04:37:35.903Z,70.29
2022-09-04T04:38:10.953Z,70.89
2022-09-04T04:38:46.142Z,70.29
2022-09-04T04:39:21.615Z,70.49
2022-09-04T04:39:56.630Z,70.09
2022-09-04T04:40:31.825Z,69.48
2022-09-04T04:41:07.028Z,69.38
2022-09-04T04:41:42.236Z,69.07
2022-09-04T04:42:18.376Z,69.18
2022-09-04T04:42:52.939Z,69.78
2022-09-04T04:43:28.055Z,69.78
2022-09-04T04:44:03.551Z,69.38
2022-09-04T04:44:38.959Z,69.58
2022-09-04T04:45:14.173Z,69.78
2022-09-04T04:45:49.676Z,69.38
2022-09-04T04:46:31.973Z,69.48
2022-09-04T04:47:07.117Z,69.48
2022-09-04T04:47:42.326Z,69.07
2022-09-04T04:48:17.874Z,69.38
2022-09-04T04:48:52.917Z,69.07
2022-09-04T04:49:27.906Z,68.87
2022-09-04T04:50:02.922Z,69.48
2022-09-04T04:50:37.948Z,69.38
2022-09-04T04:51:13.339Z,70.29
2022-09-04T04:51:48.738Z,70.49
2022-09-04T04:52:23.921Z,70.49
2022-09-04T04:52:58.931Z,70.79
2022-09-04T04:53:34.153Z,70.89
2022-09-04T04:54:10.015Z,70.73
2022-09-04T04:54:44.639Z,70.52
2022-09-04T04:55:19.757Z,70.42
2022-09-04T04:55:54.856Z,70.83
2022-09-04T04:56:30.162Z,70.52
2022-09-04T04:57:05.362Z,69.27
2022-09-04T04:57:40.664Z,70.12
2022-09-04T04:58:15.903Z,69.71
2022-09-04T04:58:51.121Z,69.27
2022-09-04T04:59:26.319Z,70.89
2022-09-04T05:00:01.431Z,71.23
2022-09-04T05:00:36.945Z,69.78
2022-09-04T05:01:12.373Z,70.49
2022-09-04T05:01:48.091Z,69.78
2022-09-04T05:02:23.685Z,69.38
2022-09-04T05:02:58.628Z,69.58
2022-09-04T05:03:33.623Z,69.27
2022-09-04T05:04:09.305Z,69.89
2022-09-04T05:04:45.081Z,70.89
2022-09-04T05:05:20.521Z,70.59
2022-09-04T05:05:55.609Z,70.79
2022-09-04T05:06:31.175Z,70.89
2022-09-04T05:07:06.368Z,71.73
2022-09-04T05:07:41.675Z,71.94
2022-09-04T05:08:16.673Z,71.13
2022-09-04T05:08:51.964Z,70.22
2022-09-04T05:09:27.366Z,70.32
2022-09-04T05:10:02.882Z,70.32
2022-09-04T05:10:38.104Z,70.52
2022-09-04T05:11:13.101Z,70.42
2022-09-04T05:11:48.299Z,69.92
2022-09-04T05:12:23.514Z,70.62
2022-09-04T05:12:58.701Z,71.03
2022-09-04T05:13:34.005Z,70.32
2022-09-04T05:14:09.202Z,71.03
2022-09-04T05:14:44.417Z,70.42
2022-09-04T05:15:19.727Z,69.61
2022-09-04T05:16:08.587Z,70.52
2022-09-04T05:16:30.175Z,70.02
2022-09-04T05:17:05.280Z,69.68
2022-09-04T05:17:40.526Z,70.93
2022-09-04T05:18:15.723Z,70.73
2022-09-04T05:18:50.860Z,71.09
2022-09-04T05:19:26.173Z,70.79
2022-09-04T05:20:01.375Z,71.09
2022-09-04T05:20:36.505Z,70.89
2022-09-04T05:21:11.613Z,72.24
2022-09-04T05:21:46.813Z,71.33
2022-09-04T05:22:21.920Z,71.94
2022-09-04T05:22:57.035Z,71.13
2022-09-04T05:23:32.298Z,71.13
2022-09-04T05:24:07.589Z,71.73
2022-09-04T05:24:42.703Z,71.94
2022-09-04T05:25:18.025Z,71.73
2022-09-04T05:25:53.434Z,72.04
2022-09-04T05:26:28.643Z,72.24
2022-09-04T05:27:04.247Z,71.64
2022-09-04T05:27:39.675Z,72.34
2022-09-04T05:28:14.795Z,72.04
2022-09-04T05:28:50.212Z,72.24
2022-09-04T05:29:28.155Z,72.34
2022-09-04T05:30:00.783Z,72.65
2022-09-04T05:30:36.532Z,72.44
2022-09-04T05:31:11.754Z,71.94
2022-09-04T05:31:46.851Z,71.64
2022-09-04T05:32:21.962Z,71.84
2022-09-04T05:32:57.258Z,72.04
2022-09-04T05:33:32.540Z,72.75
2022-09-04T05:34:07.935Z,72.24
2022-09-04T05:34:43.130Z,72.65
2022-09-04T05:35:18.954Z,72.55
2022-09-04T05:35:54.182Z,72.55
2022-09-04T05:36:29.504Z,72.55
2022-09-04T05:37:04.586Z,72.65
2022-09-04T05:37:39.809Z,72.75
2022-09-04T05:38:15.112Z,71.84
2022-09-04T05:38:50.540Z,71.13
2022-09-04T05:39:25.811Z,72.34
2022-09-04T05:40:01.002Z,71.60
2022-09-04T05:40:36.371Z,70.52
2022-09-04T05:41:11.883Z,70.89
2022-09-04T05:41:47.095Z,71.00
2022-09-04T05:42:22.027Z,71.91
2022-09-04T05:42:57.222Z,71.73
2022-09-04T05:43:32.331Z,71.80
2022-09-04T05:44:07.763Z,71.60
2022-09-04T05:44:43.219Z,72.41
2022-09-04T05:45:18.153Z,71.50
2022-09-04T05:45:53.319Z,72.21
2022-09-04T05:46:29.102Z,72.41
2022-09-04T05:47:04.292Z,72.34
2022-09-04T05:47:39.730Z,72.11
2022-09-04T05:48:15.148Z,72.14
2022-09-04T05:48:50.551Z,71.80
2022-09-04T05:49:26.074Z,72.21
2022-09-04T05:50:01.176Z,72.01
2022-09-04T05:50:36.606Z,72.31
2022-09-04T05:51:11.724Z,71.50
2022-09-04T05:51:47.238Z,72.61
2022-09-04T05:52:22.341Z,71.50
2022-09-04T05:52:57.544Z,72.11
2022-09-04T05:53:32.668Z,71.50
2022-09-04T05:54:07.914Z,72.11
2022-09-04T05:54:43.220Z,71.20
2022-09-04T05:55:18.935Z,71.80
2022-09-04T05:55:54.134Z,71.91
2022-09-04T05:56:29.410Z,72.21
2022-09-04T05:57:04.744Z,71.09
2022-09-04T05:57:40.271Z,72.21
2022-09-04T05:58:15.473Z,71.77
2022-09-04T05:58:50.782Z,71.91
2022-09-04T05:59:25.995Z,72.48
2022-09-04T06:00:01.310Z,71.97
2022-09-04T06:00:36.733Z,72.28
2022-09-04T06:01:12.021Z,70.96
2022-09-04T06:01:51.679Z,70.86
2022-09-04T06:02:22.486Z,70.86
2022-09-04T06:02:57.625Z,70.25
2022-09-04T06:03:32.756Z,70.36
2022-09-04T06:04:08.245Z,70.36
2022-09-04T06:04:43.338Z,69.34
2022-09-04T06:05:18.530Z,70.12
2022-09-04T06:05:53.954Z,69.21
2022-09-04T06:06:29.347Z,69.31
2022-09-04T06:07:04.803Z,70.22
2022-09-04T06:07:39.785Z,70.22
2022-09-04T06:08:15.292Z,69.89
2022-09-04T06:08:50.592Z,70.49
2022-09-04T06:09:25.788Z,70.19
2022-09-04T06:10:01.120Z,70.19
2022-09-04T06:10:36.313Z,69.18
2022-09-04T06:11:11.727Z,69.15
2022-09-04T06:11:47.144Z,69.45
2022-09-04T06:12:22.149Z,68.95
2022-09-04T06:12:57.548Z,69.08
2022-09-04T06:13:32.627Z,68.84
2022-09-04T06:14:07.928Z,68.44
2022-09-04T06:14:43.346Z,68.64
2022-09-04T06:15:18.541Z,68.74
2022-09-04T06:15:53.755Z,68.64
2022-09-04T06:16:28.821Z,68.10
2022-09-04T06:17:04.203Z,67.70
2022-09-04T06:17:39.176Z,66.99
2022-09-04T06:18:14.291Z,67.70
2022-09-04T06:18:49.522Z,67.87
2022-09-04T06:19:24.828Z,68.01
2022-09-04T06:20:00.031Z,68.07
2022-09-04T06:20:35.259Z,67.57
2022-09-04T06:21:10.355Z,67.16
2022-09-04T06:21:45.967Z,67.77
2022-09-04T06:22:21.276Z,67.77
2022-09-04T06:22:57.659Z,68.04
2022-09-04T06:23:31.566Z,66.96
2022-09-04T06:24:06.763Z,66.83
2022-09-04T06:24:41.884Z,66.73
2022-09-04T06:25:17.006Z,66.73
2022-09-04T06:25:52.299Z,67.63
2022-09-04T06:26:27.714Z,66.60
2022-09-04T06:27:02.897Z,66.93
2022-09-04T06:27:38.113Z,67.71
2022-09-04T06:28:13.179Z,66.80
2022-09-04T06:28:48.386Z,66.90
2022-09-04T06:29:23.525Z,66.60
2022-09-04T06:29:59.039Z,66.47
2022-09-04T06:30:34.046Z,66.16
2022-09-04T06:31:09.177Z,65.56
2022-09-04T06:31:44.154Z,66.06
2022-09-04T06:32:19.363Z,65.36
2022-09-04T06:32:54.284Z,65.66
2022-09-04T06:33:29.595Z,65.73
2022-09-04T06:34:04.792Z,65.53
2022-09-04T06:34:40.079Z,65.63
2022-09-04T06:35:15.181Z,64.92
2022-09-04T06:35:50.868Z,64.89
2022-09-04T06:36:26.094Z,64.79
2022-09-04T06:37:01.495Z,64.59
2022-09-04T06:37:36.714Z,64.59
2022-09-04T06:38:12.101Z,64.99
2022-09-04T06:38:47.133Z,63.85
2022-09-04T06:39:22.261Z,63.96
2022-09-04T06:39:57.436Z,63.96
2022-09-04T06:40:32.513Z,63.85
2022-09-04T06:41:07.714Z,63.85
2022-09-04T06:41:42.887Z,64.16
2022-09-04T06:42:18.206Z,64.06
2022-09-04T06:42:53.608Z,64.23
2022-09-04T06:43:29.766Z,64.16
2022-09-04T06:44:04.233Z,63.76
2022-09-04T06:44:39.616Z,63.53
2022-09-04T06:45:15.022Z,64.23
2022-09-04T06:45:50.123Z,63.42
2022-09-04T06:46:25.366Z,63.62
2022-09-04T06:47:00.823Z,63.02
2022-09-04T06:47:35.833Z,62.89
2022-09-04T06:48:11.058Z,62.69
2022-09-04T06:48:46.242Z,62.79
2022-09-04T06:49:21.443Z,62.49
2022-09-04T06:49:56.659Z,62.66
2022-09-04T06:50:32.398Z,63.06
2022-09-04T06:51:08.040Z,62.86
2022-09-04T06:51:43.252Z,62.46
2022-09-04T06:52:18.585Z,61.96
2022-09-04T06:52:53.912Z,61.83
2022-09-04T06:53:28.970Z,61.83
2022-09-04T06:54:04.082Z,60.93
2022-09-04T06:54:39.159Z,61.43
2022-09-04T06:55:14.157Z,61.22
2022-09-04T06:55:49.337Z,61.30
2022-09-04T06:56:24.556Z,61.19
2022-09-04T06:56:59.846Z,61.30
2022-09-04T06:57:35.220Z,61.10
2022-09-04T06:58:10.222Z,61.19
2022-09-04T06:58:45.531Z,61.30
2022-09-04T06:59:20.540Z,61.50
2022-09-04T06:59:55.843Z,61.00
2022-09-04T07:00:31.148Z,61.19
2022-09-04T07:01:06.249Z,61.19
2022-09-04T07:01:41.991Z,60.89
2022-09-04T07:02:17.494Z,60.47
2022-09-04T07:02:52.512Z,60.97
2022-09-04T07:03:27.697Z,60.06
2022-09-04T07:04:02.794Z,61.47
2022-09-04T07:04:37.899Z,61.27
2022-09-04T07:05:13.409Z,60.77
2022-09-04T07:05:48.831Z,60.06
2022-09-04T07:06:24.212Z,60.16
2022-09-04T07:06:59.514Z,59.83
2022-09-04T07:07:34.847Z,59.83
2022-09-04T07:08:10.239Z,60.01
2022-09-04T07:08:45.342Z,59.81
2022-09-04T07:09:20.556Z,60.01
2022-09-04T07:09:59.913Z,59.50
2022-09-04T07:10:31.187Z,58.87
2022-09-04T07:11:06.375Z,58.58
2022-09-04T07:11:41.875Z,59.48
2022-09-04T07:12:16.971Z,58.78
2022-09-04T07:12:52.267Z,58.75
2022-09-04T07:13:27.447Z,58.45
2022-09-04T07:14:02.860Z,58.15
2022-09-04T07:14:37.972Z,58.35
2022-09-04T07:15:13.097Z,58.12
2022-09-04T07:15:48.432Z,58.02
2022-09-04T07:16:23.495Z,58.12
2022-09-04T07:16:58.594Z,56.92
2022-09-04T07:17:34.103Z,57.22
2022-09-04T07:18:09.585Z,57.09
2022-09-04T07:18:44.774Z,57.29
2022-09-04T07:19:19.960Z,57.29
2022-09-04T07:19:55.468Z,57.39
2022-09-04T07:20:30.857Z,57.57
2022-09-04T07:21:05.996Z,56.67
2022-09-04T07:21:41.686Z,57.26
2022-09-04T07:22:16.776Z,57.44
2022-09-04T07:22:52.002Z,56.64
2022-09-04T07:23:27.424Z,56.64
2022-09-04T07:24:02.624Z,56.31
2022-09-04T07:24:37.867Z,56.31
2022-09-04T07:25:13.455Z,55.88
2022-09-04T07:25:48.785Z,55.49
2022-09-04T07:26:24.010Z,55.79
2022-09-04T07:26:59.407Z,54.89
2022-09-04T07:27:34.718Z,54.46
2022-09-04T07:28:09.929Z,54.66
2022-09-04T07:28:45.139Z,54.27
2022-09-04T07:29:25.130Z,55.04
2022-09-04T07:29:55.593Z,54.83
2022-09-04T07:30:31.015Z,53.94
2022-09-04T07:31:06.181Z,54.11
2022-09-04T07:31:41.763Z,54.81
2022-09-04T07:32:16.805Z,54.31
2022-09-04T07:32:52.019Z,53.81
2022-09-04T07:33:27.629Z,53.29
2022-09-04T07:34:02.910Z,53.89
2022-09-04T07:34:38.833Z,53.49